sensor_id;sensor_type;location;lat;lon;timestamp;pressure;altitude;pressure_sealevel;temperature;humidity
61128;BME280;47013;42.664;23.242;2023-01-29T00:00:33;94104.31;;;-0.46;92.78
61128;BME280;47013;42.664;23.242;2023-01-29T00:02:59;94109.84;;;-0.51;92.63
61128;BME280;47013;42.664;23.242;2023-01-29T00:05:24;94116.50;;;-0.57;92.88
61128;BME280;47013;42.664;23.242;2023-01-29T00:07:49;94113.59;;;-0.64;93.33
61128;BME280;47013;42.664;23.242;2023-01-29T00:10:14;94111.91;;;-0.69;94.43
61128;BME280;47013;42.664;23.242;2023-01-29T00:12:40;94111.38;;;-0.62;95.11
61128;BME280;47013;42.664;23.242;2023-01-29T00:15:05;94108.84;;;-0.58;94.65
61128;BME280;47013;42.664;23.242;2023-01-29T00:17:31;94117.06;;;-0.51;94.45
61128;BME280;47013;42.664;23.242;2023-01-29T00:19:56;94118.97;;;-0.52;93.69
61128;BME280;47013;42.664;23.242;2023-01-29T00:22:21;94121.91;;;-0.53;93.90
61128;BME280;47013;42.664;23.242;2023-01-29T00:24:47;94122.47;;;-0.60;94.35
61128;BME280;47013;42.664;23.242;2023-01-29T00:27:12;94118.38;;;-0.57;93.52
61128;BME280;47013;42.664;23.242;2023-01-29T00:29:37;94119.22;;;-0.66;94.29
61128;BME280;47013;42.664;23.242;2023-01-29T00:32:02;94122.38;;;-0.64;94.67
61128;BME280;47013;42.664;23.242;2023-01-29T00:34:28;94131.00;;;-0.67;93.87
61128;BME280;47013;42.664;23.242;2023-01-29T00:36:53;94121.91;;;-0.66;95.04
61128;BME280;47013;42.664;23.242;2023-01-29T00:39:30;94128.03;;;-0.65;94.99
61128;BME280;47013;42.664;23.242;2023-01-29T00:42:04;94126.78;;;-0.68;95.31
61128;BME280;47013;42.664;23.242;2023-01-29T00:44:48;94130.06;;;-0.83;95.64
61128;BME280;47013;42.664;23.242;2023-01-29T00:47:22;94132.28;;;-0.85;96.04
61128;BME280;47013;42.664;23.242;2023-01-29T00:50:03;94136.63;;;-0.80;97.29
61128;BME280;47013;42.664;23.242;2023-01-29T00:52:31;94125.63;;;-0.79;96.49
61128;BME280;47013;42.664;23.242;2023-01-29T00:54:58;94129.56;;;-0.76;96.48
61128;BME280;47013;42.664;23.242;2023-01-29T00:57:27;94130.44;;;-0.72;96.49
61128;BME280;47013;42.664;23.242;2023-01-29T00:59:53;94128.66;;;-0.68;97.04
61128;BME280;47013;42.664;23.242;2023-01-29T01:02:19;94126.34;;;-0.70;96.41
61128;BME280;47013;42.664;23.242;2023-01-29T01:05:03;94126.16;;;-0.65;96.15
61128;BME280;47013;42.664;23.242;2023-01-29T01:07:30;94130.13;;;-0.58;96.53
61128;BME280;47013;42.664;23.242;2023-01-29T01:09:55;94121.91;;;-0.66;96.15
61128;BME280;47013;42.664;23.242;2023-01-29T01:12:39;94128.13;;;-0.62;96.47
61128;BME280;47013;42.664;23.242;2023-01-29T01:15:05;94125.81;;;-0.63;96.07
61128;BME280;47013;42.664;23.242;2023-01-29T01:17:30;94123.16;;;-0.63;96.79
61128;BME280;47013;42.664;23.242;2023-01-29T01:19:55;94124.91;;;-0.55;97.03
61128;BME280;47013;42.664;23.242;2023-01-29T01:22:21;94122.41;;;-0.51;96.13
61128;BME280;47013;42.664;23.242;2023-01-29T01:24:46;94118.72;;;-0.47;95.48
61128;BME280;47013;42.664;23.242;2023-01-29T01:27:11;94116.41;;;-0.48;95.16
61128;BME280;47013;42.664;23.242;2023-01-29T01:29:37;94121.16;;;-0.54;95.07
61128;BME280;47013;42.664;23.242;2023-01-29T01:32:03;94122.03;;;-0.62;95.77
61128;BME280;47013;42.664;23.242;2023-01-29T01:34:28;94122.38;;;-0.64;96.15
61128;BME280;47013;42.664;23.242;2023-01-29T01:36:53;94122.16;;;-0.58;95.83
61128;BME280;47013;42.664;23.242;2023-01-29T01:39:20;94124.03;;;-0.59;96.00
61128;BME280;47013;42.664;23.242;2023-01-29T01:41:45;94132.47;;;-0.57;96.45
61128;BME280;47013;42.664;23.242;2023-01-29T01:46:55;94122.91;;;-0.58;94.92
61128;BME280;47013;42.664;23.242;2023-01-29T01:49:20;94125.69;;;-0.54;95.74
61128;BME280;47013;42.664;23.242;2023-01-29T01:51:46;94131.94;;;-0.50;95.67
61128;BME280;47013;42.664;23.242;2023-01-29T01:54:17;94132.38;;;-0.48;95.32
61128;BME280;47013;42.664;23.242;2023-01-29T01:56:48;94127.50;;;-0.46;95.05
61128;BME280;47013;42.664;23.242;2023-01-29T01:59:16;94135.25;;;-0.41;95.22
61128;BME280;47013;42.664;23.242;2023-01-29T02:01:44;94127.06;;;-0.36;95.20
61128;BME280;47013;42.664;23.242;2023-01-29T02:04:15;94134.06;;;-0.32;94.39
61128;BME280;47013;42.664;23.242;2023-01-29T02:07:00;94134.28;;;-0.37;95.37
61128;BME280;47013;42.664;23.242;2023-01-29T02:09:49;94137.94;;;-0.41;95.41
61128;BME280;47013;42.664;23.242;2023-01-29T02:12:16;94130.28;;;-0.43;95.65
61128;BME280;47013;42.664;23.242;2023-01-29T02:14:42;94135.13;;;-0.57;95.18
61128;BME280;47013;42.664;23.242;2023-01-29T02:17:09;94126.38;;;-0.57;96.55
61128;BME280;47013;42.664;23.242;2023-01-29T02:25:01;94134.69;;;-0.59;96.72
61128;BME280;47013;42.664;23.242;2023-01-29T02:40:42;94149.72;;;-0.30;96.55
61128;BME280;47013;42.664;23.242;2023-01-29T02:45:38;94156.59;;;-0.29;97.47
61128;BME280;47013;42.664;23.242;2023-01-29T02:48:06;94157.81;;;-0.26;96.23
61128;BME280;47013;42.664;23.242;2023-01-29T02:55:44;94167.25;;;-0.29;96.41
61128;BME280;47013;42.664;23.242;2023-01-29T02:58:20;94159.41;;;-0.25;96.92
61128;BME280;47013;42.664;23.242;2023-01-29T03:00:46;94163.16;;;-0.26;97.24
61128;BME280;47013;42.664;23.242;2023-01-29T03:03:14;94155.28;;;-0.23;97.96
61128;BME280;47013;42.664;23.242;2023-01-29T03:08:09;94159.69;;;-0.51;98.45
61128;BME280;47013;42.664;23.242;2023-01-29T03:10:39;94154.97;;;-0.67;98.86
61128;BME280;47013;42.664;23.242;2023-01-29T03:15:54;94155.97;;;-0.92;100.00
61128;BME280;47013;42.664;23.242;2023-01-29T03:18:26;94155.78;;;-0.87;100.00
61128;BME280;47013;42.664;23.242;2023-01-29T03:20:55;94159.41;;;-1.04;100.00
61128;BME280;47013;42.664;23.242;2023-01-29T03:23:24;94157.69;;;-1.08;100.00
61128;BME280;47013;42.664;23.242;2023-01-29T03:26:09;94160.47;;;-1.05;100.00
61128;BME280;47013;42.664;23.242;2023-01-29T03:28:54;94168.78;;;-1.06;100.00
61128;BME280;47013;42.664;23.242;2023-01-29T03:31:38;94163.06;;;-0.96;100.00
61128;BME280;47013;42.664;23.242;2023-01-29T03:34:22;94166.50;;;-0.96;100.00
61128;BME280;47013;42.664;23.242;2023-01-29T03:36:56;94165.00;;;-0.84;99.68
61128;BME280;47013;42.664;23.242;2023-01-29T03:39:24;94166.78;;;-0.88;98.15
61128;BME280;47013;42.664;23.242;2023-01-29T03:41:57;94169.16;;;-0.75;98.95
61128;BME280;47013;42.664;23.242;2023-01-29T03:47:20;94161.22;;;-0.50;97.51
61128;BME280;47013;42.664;23.242;2023-01-29T03:50:30;94165.09;;;-0.60;96.53
61128;BME280;47013;42.664;23.242;2023-01-29T03:57:58;94158.09;;;-0.65;98.58
61128;BME280;47013;42.664;23.242;2023-01-29T04:00:33;94162.53;;;-0.56;98.52
61128;BME280;47013;42.664;23.242;2023-01-29T04:05:45;94156.09;;;-0.55;98.27
61128;BME280;47013;42.664;23.242;2023-01-29T04:08:14;94159.22;;;-0.53;98.07
61128;BME280;47013;42.664;23.242;2023-01-29T04:10:41;94161.56;;;-0.85;99.54
61128;BME280;47013;42.664;23.242;2023-01-29T04:13:09;94165.56;;;-0.91;99.65
61128;BME280;47013;42.664;23.242;2023-01-29T04:15:36;94169.34;;;-0.80;100.00
61128;BME280;47013;42.664;23.242;2023-01-29T04:18:05;94175.81;;;-0.69;99.03
61128;BME280;47013;42.664;23.242;2023-01-29T04:20:30;94173.59;;;-0.67;98.01
61128;BME280;47013;42.664;23.242;2023-01-29T04:22:55;94180.84;;;-0.55;97.98
61128;BME280;47013;42.664;23.242;2023-01-29T04:25:25;94173.09;;;-0.48;97.47
61128;BME280;47013;42.664;23.242;2023-01-29T04:30:38;94177.53;;;-0.52;96.07
61128;BME280;47013;42.664;23.242;2023-01-29T04:35:40;94177.69;;;-0.36;96.78
61128;BME280;47013;42.664;23.242;2023-01-29T04:40:46;94173.91;;;-0.35;95.72
61128;BME280;47013;42.664;23.242;2023-01-29T04:43:21;94190.34;;;-0.33;94.88
61128;BME280;47013;42.664;23.242;2023-01-29T04:48:41;94182.72;;;-0.55;95.27
61128;BME280;47013;42.664;23.242;2023-01-29T04:56:12;94181.84;;;-0.60;98.07
61128;BME280;47013;42.664;23.242;2023-01-29T04:58:45;94187.53;;;-0.49;97.26
61128;BME280;47013;42.664;23.242;2023-01-29T05:01:13;94182.88;;;-0.40;95.60
61128;BME280;47013;42.664;23.242;2023-01-29T05:03:41;94190.22;;;-0.37;95.54
61128;BME280;47013;42.664;23.242;2023-01-29T05:06:08;94184.91;;;-0.37;95.05
61128;BME280;47013;42.664;23.242;2023-01-29T05:08:35;94186.56;;;-0.32;94.42
61128;BME280;47013;42.664;23.242;2023-01-29T05:11:01;94184.56;;;-0.35;94.06
61128;BME280;47013;42.664;23.242;2023-01-29T05:13:27;94192.69;;;-0.32;94.85
61128;BME280;47013;42.664;23.242;2023-01-29T05:18:28;94193.13;;;-0.30;95.60
61128;BME280;47013;42.664;23.242;2023-01-29T05:20:55;94189.78;;;-0.26;94.53
61128;BME280;47013;42.664;23.242;2023-01-29T05:23:21;94194.16;;;-0.22;94.54
61128;BME280;47013;42.664;23.242;2023-01-29T05:25:47;94197.66;;;-0.30;93.46
61128;BME280;47013;42.664;23.242;2023-01-29T05:28:13;94192.69;;;-0.32;93.62
61128;BME280;47013;42.664;23.242;2023-01-29T05:30:43;94193.91;;;-0.29;94.34
61128;BME280;47013;42.664;23.242;2023-01-29T05:35:37;94197.78;;;-0.26;94.13
61128;BME280;47013;42.664;23.242;2023-01-29T05:38:02;94199.81;;;-0.23;94.02
61128;BME280;47013;42.664;23.242;2023-01-29T05:40:27;94199.66;;;-0.27;92.87
61128;BME280;47013;42.664;23.242;2023-01-29T05:42:53;94205.91;;;-0.23;94.73
61128;BME280;47013;42.664;23.242;2023-01-29T05:45:18;94220.97;;;-0.27;92.71
61128;BME280;47013;42.664;23.242;2023-01-29T05:47:44;94218.22;;;-0.31;92.86
61128;BME280;47013;42.664;23.242;2023-01-29T05:50:09;94214.88;;;-0.27;93.76
61128;BME280;47013;42.664;23.242;2023-01-29T05:52:35;94211.34;;;-0.19;95.26
61128;BME280;47013;42.664;23.242;2023-01-29T05:55:00;94214.03;;;-0.19;93.90
61128;BME280;47013;42.664;23.242;2023-01-29T05:57:25;94218.00;;;-0.13;93.66
61128;BME280;47013;42.664;23.242;2023-01-29T05:59:51;94227.69;;;-0.09;93.49
61128;BME280;47013;42.664;23.242;2023-01-29T06:02:16;94228.16;;;-0.07;94.09
61128;BME280;47013;42.664;23.242;2023-01-29T06:04:41;94219.47;;;-0.04;93.42
61128;BME280;47013;42.664;23.242;2023-01-29T06:07:06;94229.47;;;-0.01;93.39
61128;BME280;47013;42.664;23.242;2023-01-29T06:09:32;94231.22;;;-0.17;92.96
61128;BME280;47013;42.664;23.242;2023-01-29T06:11:57;94235.97;;;-0.35;94.26
61128;BME280;47013;42.664;23.242;2023-01-29T06:14:22;94234.44;;;-0.23;96.17
61128;BME280;47013;42.664;23.242;2023-01-29T06:16:47;94240.00;;;-0.16;95.27
61128;BME280;47013;42.664;23.242;2023-01-29T06:19:13;94242.13;;;-0.10;94.76
61128;BME280;47013;42.664;23.242;2023-01-29T06:21:38;94247.31;;;-0.13;94.17
61128;BME280;47013;42.664;23.242;2023-01-29T06:24:03;94247.22;;;-0.17;95.93
61128;BME280;47013;42.664;23.242;2023-01-29T06:26:28;94254.81;;;-0.07;95.63
61128;BME280;47013;42.664;23.242;2023-01-29T06:28:54;94252.25;;;-0.03;94.64
61128;BME280;47013;42.664;23.242;2023-01-29T06:31:19;94261.16;;;0.01;94.43
61128;BME280;47013;42.664;23.242;2023-01-29T06:33:44;94259.81;;;0.07;95.63
61128;BME280;47013;42.664;23.242;2023-01-29T06:36:09;94265.94;;;0.08;94.83
61128;BME280;47013;42.664;23.242;2023-01-29T06:38:35;94267.16;;;0.10;95.43
61128;BME280;47013;42.664;23.242;2023-01-29T06:41:06;94268.06;;;0.14;94.81
61128;BME280;47013;42.664;23.242;2023-01-29T06:43:31;94268.50;;;0.16;93.55
61128;BME280;47013;42.664;23.242;2023-01-29T06:45:57;94271.28;;;0.20;94.16
61128;BME280;47013;42.664;23.242;2023-01-29T06:48:22;94264.63;;;0.26;95.13
61128;BME280;47013;42.664;23.242;2023-01-29T06:50:48;94281.94;;;0.08;94.39
61128;BME280;47013;42.664;23.242;2023-01-29T06:53:14;94279.59;;;0.06;94.38
61128;BME280;47013;42.664;23.242;2023-01-29T06:55:39;94278.16;;;0.09;93.82
61128;BME280;47013;42.664;23.242;2023-01-29T06:58:08;94281.41;;;0.14;94.86
61128;BME280;47013;42.664;23.242;2023-01-29T07:00:34;94285.84;;;0.22;93.82
61128;BME280;47013;42.664;23.242;2023-01-29T07:03:00;94281.69;;;0.13;93.63
61128;BME280;47013;42.664;23.242;2023-01-29T07:05:25;94280.16;;;0.12;94.73
61128;BME280;47013;42.664;23.242;2023-01-29T07:07:50;94287.28;;;0.20;95.40
61128;BME280;47013;42.664;23.242;2023-01-29T07:10:16;94282.41;;;0.22;93.79
61128;BME280;47013;42.664;23.242;2023-01-29T07:12:41;94274.63;;;0.17;93.90
61128;BME280;47013;42.664;23.242;2023-01-29T07:15:06;94293.63;;;0.15;94.68
61128;BME280;47013;42.664;23.242;2023-01-29T07:17:32;94299.94;;;0.11;93.95
61128;BME280;47013;42.664;23.242;2023-01-29T07:19:57;94294.59;;;0.11;93.95
61128;BME280;47013;42.664;23.242;2023-01-29T07:22:22;94302.41;;;0.16;94.84
61128;BME280;47013;42.664;23.242;2023-01-29T07:24:48;94304.50;;;0.22;93.40
61128;BME280;47013;42.664;23.242;2023-01-29T07:27:13;94312.94;;;0.24;93.11
61128;BME280;47013;42.664;23.242;2023-01-29T07:29:38;94308.66;;;0.32;92.65
61128;BME280;47013;42.664;23.242;2023-01-29T07:32:03;94307.19;;;0.35;93.22
61128;BME280;47013;42.664;23.242;2023-01-29T07:34:29;94307.78;;;0.40;93.51
61128;BME280;47013;42.664;23.242;2023-01-29T07:36:55;94311.66;;;0.31;92.15
61128;BME280;47013;42.664;23.242;2023-01-29T07:39:21;94319.22;;;0.41;93.02
61128;BME280;47013;42.664;23.242;2023-01-29T07:41:46;94313.22;;;0.44;92.38
61128;BME280;47013;42.664;23.242;2023-01-29T07:44:11;94309.78;;;0.43;92.44
61128;BME280;47013;42.664;23.242;2023-01-29T07:46:36;94308.97;;;0.31;91.48
61128;BME280;47013;42.664;23.242;2023-01-29T07:49:02;94308.53;;;0.28;92.52
61128;BME280;47013;42.664;23.242;2023-01-29T07:51:27;94313.19;;;0.32;92.25
61128;BME280;47013;42.664;23.242;2023-01-29T07:53:52;94320.50;;;0.22;92.03
61128;BME280;47013;42.664;23.242;2023-01-29T07:56:17;94313.59;;;0.09;92.41
61128;BME280;47013;42.664;23.242;2023-01-29T07:58:43;94321.25;;;0.11;92.85
61128;BME280;47013;42.664;23.242;2023-01-29T08:01:08;94318.47;;;0.07;92.98
61128;BME280;47013;42.664;23.242;2023-01-29T08:03:33;94325.47;;;0.12;93.03
61128;BME280;47013;42.664;23.242;2023-01-29T08:05:59;94329.63;;;0.21;93.19
61128;BME280;47013;42.664;23.242;2023-01-29T08:08:25;94331.50;;;0.21;92.80
61128;BME280;47013;42.664;23.242;2023-01-29T08:10:50;94334.75;;;0.26;93.30
61128;BME280;47013;42.664;23.242;2023-01-29T08:13:15;94325.41;;;0.33;93.22
61128;BME280;47013;42.664;23.242;2023-01-29T08:15:43;94332.31;;;0.34;92.03
61128;BME280;47013;42.664;23.242;2023-01-29T08:18:09;94337.91;;;0.41;92.32
61128;BME280;47013;42.664;23.242;2023-01-29T08:20:34;94336.44;;;0.43;92.52
61128;BME280;47013;42.664;23.242;2023-01-29T08:23:00;94327.88;;;0.50;92.20
61128;BME280;47013;42.664;23.242;2023-01-29T08:25:26;94337.25;;;0.56;90.83
61128;BME280;47013;42.664;23.242;2023-01-29T08:27:51;94331.47;;;0.54;90.88
61128;BME280;47013;42.664;23.242;2023-01-29T08:30:17;94337.25;;;0.56;90.34
61128;BME280;47013;42.664;23.242;2023-01-29T08:32:42;94337.75;;;0.37;90.56
61128;BME280;47013;42.664;23.242;2023-01-29T08:35:07;94342.75;;;0.39;91.16
61128;BME280;47013;42.664;23.242;2023-01-29T08:37:33;94340.91;;;1.00;100.00
61128;BME280;47013;42.664;23.242;2023-01-29T08:39:58;94343.91;;;0.74;100.00
61128;BME280;47013;42.664;23.242;2023-01-29T08:42:23;94345.66;;;0.46;90.98
61128;BME280;47013;42.664;23.242;2023-01-29T08:44:49;94350.44;;;0.40;90.91
61128;BME280;47013;42.664;23.242;2023-01-29T08:47:14;94348.09;;;0.26;91.08
61128;BME280;47013;42.664;23.242;2023-01-29T08:49:39;94357.06;;;0.22;91.21
61128;BME280;47013;42.664;23.242;2023-01-29T08:52:04;94366.63;;;0.23;92.25
61128;BME280;47013;42.664;23.242;2023-01-29T08:54:30;94365.84;;;0.22;92.36
61128;BME280;47013;42.664;23.242;2023-01-29T08:56:55;94369.09;;;0.28;92.57
61128;BME280;47013;42.664;23.242;2023-01-29T08:59:20;94368.31;;;0.27;93.04
61128;BME280;47013;42.664;23.242;2023-01-29T09:01:46;94375.97;;;0.29;92.80
61128;BME280;47013;42.664;23.242;2023-01-29T09:04:12;94365.44;;;0.33;92.72
61128;BME280;47013;42.664;23.242;2023-01-29T09:06:37;94374.66;;;0.35;93.10
61128;BME280;47013;42.664;23.242;2023-01-29T09:09:02;94370.34;;;0.43;93.14
61128;BME280;47013;42.664;23.242;2023-01-29T09:11:28;94372.00;;;0.47;91.20
61128;BME280;47013;42.664;23.242;2023-01-29T09:13:53;94369.47;;;0.51;90.73
61128;BME280;47013;42.664;23.242;2023-01-29T09:16:18;94368.34;;;0.52;89.96
61128;BME280;47013;42.664;23.242;2023-01-29T09:18:43;94368.34;;;0.40;89.79
61128;BME280;47013;42.664;23.242;2023-01-29T09:21:09;94370.66;;;0.29;90.59
61128;BME280;47013;42.664;23.242;2023-01-29T09:23:34;94367.94;;;0.17;90.77
61128;BME280;47013;42.664;23.242;2023-01-29T09:25:59;94367.63;;;0.18;91.59
61128;BME280;47013;42.664;23.242;2023-01-29T09:28:24;94363.50;;;0.21;91.36
61128;BME280;47013;42.664;23.242;2023-01-29T09:30:50;94359.06;;;0.25;92.26
61128;BME280;47013;42.664;23.242;2023-01-29T09:33:15;94370.44;;;0.34;92.46
61128;BME280;47013;42.664;23.242;2023-01-29T09:35:40;94363.00;;;0.40;92.25
61128;BME280;47013;42.664;23.242;2023-01-29T09:38:06;94366.13;;;0.42;92.40
61128;BME280;47013;42.664;23.242;2023-01-29T09:43:12;94351.22;;;0.41;89.85
61128;BME280;47013;42.664;23.242;2023-01-29T09:45:44;94356.09;;;0.39;90.16
61128;BME280;47013;42.664;23.242;2023-01-29T09:48:14;94353.13;;;0.40;90.43
61128;BME280;47013;42.664;23.242;2023-01-29T09:50:46;94358.78;;;0.51;91.32
61128;BME280;47013;42.664;23.242;2023-01-29T09:54:15;94345.59;;;0.54;90.37
61128;BME280;47013;42.664;23.242;2023-01-29T09:56:13;94349.59;;;0.61;89.45
61128;BME280;47013;42.664;23.242;2023-01-29T09:58:39;94345.81;;;0.62;90.25
61128;BME280;47013;42.664;23.242;2023-01-29T10:11:37;94338.88;;;0.48;90.48
61128;BME280;47013;42.664;23.242;2023-01-29T10:14:28;94332.25;;;0.79;100.00
61128;BME280;47013;42.664;23.242;2023-01-29T10:19:55;94328.13;;;0.69;91.58
61128;BME280;47013;42.664;23.242;2023-01-29T10:22:31;94324.53;;;1.26;100.00
61128;BME280;47013;42.664;23.242;2023-01-29T10:27:29;94329.69;;;0.82;89.31
61128;BME280;47013;42.664;23.242;2023-01-29T10:29:55;94321.34;;;0.72;90.12
61128;BME280;47013;42.664;23.242;2023-01-29T10:32:22;94325.38;;;0.66;90.32
61128;BME280;47013;42.664;23.242;2023-01-29T10:34:56;94320.22;;;0.61;90.43
61128;BME280;47013;42.664;23.242;2023-01-29T10:37:33;94317.00;;;0.43;90.90
61128;BME280;47013;42.664;23.242;2023-01-29T10:40:00;94315.88;;;0.44;91.76
61128;BME280;47013;42.664;23.242;2023-01-29T10:42:37;94309.03;;;0.67;100.00
61128;BME280;47013;42.664;23.242;2023-01-29T10:50:17;94322.00;;;0.56;91.59
61128;BME280;47013;42.664;23.242;2023-01-29T11:00:23;94309.34;;;0.41;91.54
61128;BME280;47013;42.664;23.242;2023-01-29T11:02:50;94309.66;;;0.40;92.18
61128;BME280;47013;42.664;23.242;2023-01-29T11:05:35;94309.44;;;0.45;92.64
61128;BME280;47013;42.664;23.242;2023-01-29T11:08:06;94309.66;;;0.52;92.27
61128;BME280;47013;42.664;23.242;2023-01-29T11:10:36;94310.00;;;0.50;92.29
61128;BME280;47013;42.664;23.242;2023-01-29T11:13:04;94304.53;;;0.47;91.72
61128;BME280;47013;42.664;23.242;2023-01-29T11:15:30;94302.66;;;0.47;91.80
61128;BME280;47013;42.664;23.242;2023-01-29T11:18:03;94301.44;;;0.45;92.24
61128;BME280;47013;42.664;23.242;2023-01-29T11:20:29;94303.66;;;0.43;92.81
61128;BME280;47013;42.664;23.242;2023-01-29T11:22:55;94295.09;;;0.37;92.10
61128;BME280;47013;42.664;23.242;2023-01-29T11:25:20;94297.56;;;0.42;92.89
61128;BME280;47013;42.664;23.242;2023-01-29T11:27:47;94288.97;;;0.49;92.96
61128;BME280;47013;42.664;23.242;2023-01-29T11:32:41;94288.97;;;0.49;91.57
61128;BME280;47013;42.664;23.242;2023-01-29T11:37:39;94272.09;;;0.57;91.43
61128;BME280;47013;42.664;23.242;2023-01-29T11:42:42;94266.75;;;0.57;92.36
61128;BME280;47013;42.664;23.242;2023-01-29T11:45:22;94258.19;;;0.64;91.76
61128;BME280;47013;42.664;23.242;2023-01-29T11:47:49;94258.84;;;0.61;90.89
61128;BME280;47013;42.664;23.242;2023-01-29T11:50:26;94260.41;;;0.62;91.14
61128;BME280;47013;42.664;23.242;2023-01-29T11:52:53;94257.06;;;0.65;91.85
61128;BME280;47013;42.664;23.242;2023-01-29T11:57:47;94260.06;;;0.75;90.59
61128;BME280;47013;42.664;23.242;2023-01-29T12:00:25;94261.97;;;0.75;90.79
61128;BME280;47013;42.664;23.242;2023-01-29T12:05:36;94255.50;;;0.88;90.77
61128;BME280;47013;42.664;23.242;2023-01-29T12:08:02;94251.50;;;0.94;90.87
61128;BME280;47013;42.664;23.242;2023-01-29T12:10:38;94248.69;;;1.03;91.22
61128;BME280;47013;42.664;23.242;2023-01-29T12:15:29;94241.66;;;1.10;88.62
61128;BME280;47013;42.664;23.242;2023-01-29T12:18:00;94250.56;;;1.14;88.24
61128;BME280;47013;42.664;23.242;2023-01-29T12:20:34;94253.53;;;1.25;89.14
61128;BME280;47013;42.664;23.242;2023-01-29T12:35:46;94257.38;;;1.00;89.24
61128;BME280;47013;42.664;23.242;2023-01-29T12:38:14;94258.50;;;0.99;88.86
61128;BME280;47013;42.664;23.242;2023-01-29T12:40:42;94259.84;;;0.93;89.51
61128;BME280;47013;42.664;23.242;2023-01-29T12:43:19;94252.50;;;0.89;88.40
61128;BME280;47013;42.664;23.242;2023-01-29T12:45:48;94252.84;;;0.76;89.06
61128;BME280;47013;42.664;23.242;2023-01-29T12:48:49;94252.97;;;0.79;89.65
61128;BME280;47013;42.664;23.242;2023-01-29T12:51:18;94254.41;;;0.77;90.05
61128;BME280;47013;42.664;23.242;2023-01-29T12:53:55;94254.09;;;0.78;89.72
61128;BME280;47013;42.664;23.242;2023-01-29T12:56:25;94253.06;;;0.83;91.26
61128;BME280;47013;42.664;23.242;2023-01-29T12:58:52;94257.06;;;0.89;89.43
61128;BME280;47013;42.664;23.242;2023-01-29T13:01:22;94249.72;;;0.86;89.58
61128;BME280;47013;42.664;23.242;2023-01-29T13:03:54;94256.97;;;0.85;89.38
61128;BME280;47013;42.664;23.242;2023-01-29T13:06:27;94255.50;;;0.88;89.70
61128;BME280;47013;42.664;23.242;2023-01-29T13:08:55;94244.16;;;0.91;89.84
61128;BME280;47013;42.664;23.242;2023-01-29T13:16:20;94242.72;;;0.94;88.54
61128;BME280;47013;42.664;23.242;2023-01-29T13:18:55;94240.47;;;0.96;89.36
61128;BME280;47013;42.664;23.242;2023-01-29T13:21:22;94246.34;;;1.01;90.11
61128;BME280;47013;42.664;23.242;2023-01-29T13:23:55;94245.38;;;1.06;90.30
61128;BME280;47013;42.664;23.242;2023-01-29T13:26:22;94245.72;;;1.04;88.75
61128;BME280;47013;42.664;23.242;2023-01-29T13:28:48;94249.16;;;1.05;89.37
61128;BME280;47013;42.664;23.242;2023-01-29T13:31:31;94246.03;;;1.03;89.14
61128;BME280;47013;42.664;23.242;2023-01-29T13:33:59;94253.72;;;1.04;89.50
61128;BME280;47013;42.664;23.242;2023-01-29T13:36:28;94257.38;;;1.00;89.11
61128;BME280;47013;42.664;23.242;2023-01-29T13:39:07;94261.59;;;1.01;89.12
61128;BME280;47013;42.664;23.242;2023-01-29T13:41:39;94262.28;;;0.85;88.28
61128;BME280;47013;42.664;23.242;2023-01-29T13:44:17;94256.97;;;0.85;88.63
61128;BME280;47013;42.664;23.242;2023-01-29T13:46:47;94270.63;;;0.84;88.72
61128;BME280;47013;42.664;23.242;2023-01-29T13:49:21;94266.09;;;0.84;89.37
61128;BME280;47013;42.664;23.242;2023-01-29T13:51:48;94277.88;;;0.83;89.84
61128;BME280;47013;42.664;23.242;2023-01-29T13:54:15;94276.22;;;0.79;88.86
61128;BME280;47013;42.664;23.242;2023-01-29T13:56:55;94273.75;;;0.74;89.10
61128;BME280;47013;42.664;23.242;2023-01-29T14:02:23;94277.34;;;0.66;89.78
61128;BME280;47013;42.664;23.242;2023-01-29T14:04:49;94284.31;;;0.58;90.34
61128;BME280;47013;42.664;23.242;2023-01-29T14:07:37;94280.66;;;0.63;91.32
61128;BME280;47013;42.664;23.242;2023-01-29T14:10:01;94288.22;;;0.61;90.98
61128;BME280;47013;42.664;23.242;2023-01-29T14:12:34;94282.09;;;0.60;91.62
61128;BME280;47013;42.664;23.242;2023-01-29T14:15:03;94282.78;;;0.57;91.87
61128;BME280;47013;42.664;23.242;2023-01-29T14:17:29;94284.88;;;0.51;91.85
61128;BME280;47013;42.664;23.242;2023-01-29T14:20:00;94287.44;;;0.60;92.59
61128;BME280;47013;42.664;23.242;2023-01-29T14:22:27;94287.53;;;0.64;91.88
61128;BME280;47013;42.664;23.242;2023-01-29T14:24:58;94295.34;;;0.69;91.93
61128;BME280;47013;42.664;23.242;2023-01-29T14:27:25;94296.56;;;0.71;91.69
61128;BME280;47013;42.664;23.242;2023-01-29T14:29:51;94302.91;;;0.67;91.82
61128;BME280;47013;42.664;23.242;2023-01-29T14:32:23;94301.47;;;0.69;91.61
61128;BME280;47013;42.664;23.242;2023-01-29T14:34:50;94305.25;;;0.68;91.77
61128;BME280;47013;42.664;23.242;2023-01-29T14:37:21;94312.34;;;0.64;89.81
61128;BME280;47013;42.664;23.242;2023-01-29T14:39:53;94308.09;;;0.63;89.78
61128;BME280;47013;42.664;23.242;2023-01-29T14:42:23;94314.53;;;0.50;90.89
61128;BME280;47013;42.664;23.242;2023-01-29T14:47:18;94313.34;;;0.84;100.00
61128;BME280;47013;42.664;23.242;2023-01-29T14:49:57;94314.03;;;0.69;95.49
61128;BME280;47013;42.664;23.242;2023-01-29T14:52:27;94311.25;;;0.65;92.65
61128;BME280;47013;42.664;23.242;2023-01-29T14:54:56;94308.59;;;0.65;91.85
61128;BME280;47013;42.664;23.242;2023-01-29T14:57:22;94304.03;;;0.66;91.72
61128;BME280;47013;42.664;23.242;2023-01-29T14:59:50;94305.34;;;0.72;91.57
61128;BME280;47013;42.664;23.242;2023-01-29T15:02:19;94301.56;;;0.73;91.39
61128;BME280;47013;42.664;23.242;2023-01-29T15:04:49;94312.81;;;0.66;91.36
61128;BME280;47013;42.664;23.242;2023-01-29T15:12:15;94314.38;;;0.79;90.31
61128;BME280;47013;42.664;23.242;2023-01-29T15:17:39;94304.78;;;0.78;90.09
61128;BME280;47013;42.664;23.242;2023-01-29T15:20:25;94314.66;;;0.78;89.83
61128;BME280;47013;42.664;23.242;2023-01-29T15:22:50;94309.03;;;0.79;89.54
61128;BME280;47013;42.664;23.242;2023-01-29T15:25:15;94303.00;;;0.70;89.21